createdAt,value
2019-05-23T00:00:32.004Z,8.84
2019-05-23T00:02:58.776Z,8.77
2019-05-23T00:05:25.642Z,8.76
2019-05-23T00:07:52.493Z,8.76
2019-05-23T00:10:20.115Z,8.75
2019-05-23T00:12:49.142Z,8.72
2019-05-23T00:15:26.749Z,8.66
2019-05-23T00:17:53.720Z,8.66
2019-05-23T00:20:20.704Z,8.63
2019-05-23T00:22:47.520Z,8.59
2019-05-23T00:25:15.322Z,8.57
2019-05-23T00:27:43.731Z,8.57
2019-05-23T00:30:11.456Z,8.53
2019-05-23T00:32:38.440Z,8.50
2019-05-23T00:35:06.697Z,8.48
2019-05-23T00:37:33.644Z,8.43
2019-05-23T00:40:00.739Z,8.43
2019-05-23T00:42:29.263Z,8.41
2019-05-23T00:44:56.212Z,8.36
2019-05-23T00:47:23.497Z,8.37
2019-05-23T00:49:50.238Z,8.35
2019-05-23T00:52:16.974Z,8.30
2019-05-23T00:54:44.155Z,8.27
2019-05-23T00:57:10.901Z,8.21
2019-05-23T00:59:38.122Z,8.18
2019-05-23T01:02:05.057Z,8.13
2019-05-23T01:04:31.985Z,8.12
2019-05-23T01:06:59.254Z,8.07
2019-05-23T01:09:26.056Z,8.09
2019-05-23T01:11:53.262Z,8.02
2019-05-23T01:14:20.600Z,8.00
2019-05-23T01:16:47.595Z,7.89
2019-05-23T01:19:14.854Z,7.89
2019-05-23T01:21:41.687Z,7.87
2019-05-23T01:24:08.535Z,7.84
2019-05-23T01:26:35.265Z,7.80
2019-05-23T01:29:02.293Z,7.79
2019-05-23T01:31:29.387Z,7.78
2019-05-23T01:33:56.105Z,7.75
2019-05-23T01:36:23.072Z,7.70
2019-05-23T01:38:50.260Z,7.71
2019-05-23T01:41:17.007Z,7.74
2019-05-23T01:43:44.109Z,7.81
2019-05-23T01:46:11.170Z,7.79
2019-05-23T01:48:37.960Z,7.71
2019-05-23T01:51:05.650Z,7.55
2019-05-23T01:53:32.567Z,7.56
2019-05-23T01:55:59.245Z,7.60
2019-05-23T01:58:26.184Z,7.59
2019-05-23T02:00:52.977Z,7.53
2019-05-23T02:03:20.011Z,7.55
2019-05-23T02:05:46.730Z,7.60
2019-05-23T02:08:14.230Z,7.62
2019-05-23T02:10:41.167Z,7.62
2019-05-23T02:13:09.355Z,7.57
2019-05-23T02:15:36.225Z,7.52
2019-05-23T02:18:03.784Z,7.44
2019-05-23T02:20:30.511Z,7.40
2019-05-23T02:22:57.450Z,7.41
2019-05-23T02:25:25.695Z,7.38
2019-05-23T02:27:52.633Z,7.35
2019-05-23T02:30:34.301Z,7.34
2019-05-23T02:32:50.400Z,7.35
2019-05-23T02:35:17.821Z,7.33
2019-05-23T02:37:44.811Z,7.32
2019-05-23T02:40:12.138Z,7.37
2019-05-23T02:42:38.979Z,7.38
2019-05-23T02:45:07.186Z,7.30
2019-05-23T02:47:35.313Z,7.26
2019-05-23T02:50:05.751Z,7.22
2019-05-23T02:52:43.782Z,7.19
2019-05-23T02:55:24.712Z,7.14
2019-05-23T02:57:51.906Z,7.09
2019-05-23T03:00:53.593Z,7.03
2019-05-23T03:03:14.540Z,6.99
2019-05-23T03:05:41.273Z,6.94
2019-05-23T03:08:09.627Z,6.90
2019-05-23T03:11:03.486Z,6.88
2019-05-23T03:13:31.305Z,6.85
2019-05-23T03:15:58.545Z,6.78
2019-05-23T03:18:27.411Z,6.73
2019-05-23T03:20:54.166Z,6.72
2019-05-23T03:23:21.333Z,6.70
2019-05-23T03:26:02.660Z,6.72
2019-05-23T03:28:39.185Z,6.67
2019-05-23T03:31:26.445Z,6.70
2019-05-23T03:33:34.610Z,6.70
2019-05-23T03:36:01.455Z,6.66
2019-05-23T03:38:28.259Z,6.63
2019-05-23T03:40:54.972Z,6.62
2019-05-23T03:43:22.101Z,6.57
2019-05-23T03:45:48.963Z,6.62
2019-05-23T03:48:16.414Z,6.66
2019-05-23T03:50:44.010Z,6.67
2019-05-23T03:53:11.105Z,6.60
2019-05-23T03:55:38.331Z,6.60
2019-05-23T03:58:05.257Z,6.60
2019-05-23T04:00:33.433Z,6.59
2019-05-23T04:03:01.175Z,6.54
2019-05-23T04:05:29.337Z,6.56
2019-05-23T04:07:56.340Z,6.53
2019-05-23T04:10:23.638Z,6.55
2019-05-23T04:12:50.852Z,6.53
2019-05-23T04:15:17.746Z,6.42
2019-05-23T04:17:44.582Z,6.47
2019-05-23T04:20:11.792Z,6.50
2019-05-23T04:22:38.681Z,6.50
2019-05-23T04:25:07.165Z,6.55
2019-05-23T04:27:34.116Z,6.56
2019-05-23T04:30:01.109Z,6.58
2019-05-23T04:32:27.944Z,6.58
2019-05-23T04:34:54.679Z,6.62
2019-05-23T04:37:21.478Z,6.65
2019-05-23T04:39:48.383Z,6.64
2019-05-23T04:42:15.261Z,6.64
2019-05-23T04:44:44.388Z,6.65
2019-05-23T04:47:11.063Z,6.72
2019-05-23T04:49:37.772Z,6.73
2019-05-23T04:52:04.869Z,6.67
2019-05-23T04:54:31.695Z,6.70
2019-05-23T04:56:58.729Z,6.73
2019-05-23T04:59:25.525Z,6.71
2019-05-23T05:01:54.180Z,6.70
2019-05-23T05:04:22.704Z,6.72
2019-05-23T05:06:49.621Z,6.73
2019-05-23T05:09:16.351Z,6.80
2019-05-23T05:11:43.094Z,6.85
2019-05-23T05:14:09.890Z,6.88
2019-05-23T05:16:36.712Z,6.90
2019-05-23T05:19:03.530Z,6.94
2019-05-23T05:21:31.042Z,6.93
2019-05-23T05:23:58.075Z,6.96
2019-05-23T05:26:24.844Z,7.01
2019-05-23T05:28:51.872Z,7.04
2019-05-23T05:31:19.283Z,7.10
2019-05-23T05:33:46.046Z,7.15
2019-05-23T05:36:13.214Z,7.24
2019-05-23T05:38:39.939Z,7.29
2019-05-23T05:41:06.852Z,7.35
2019-05-23T05:43:33.752Z,7.39
2019-05-23T05:46:00.457Z,7.45
2019-05-23T05:48:29.213Z,7.51
2019-05-23T05:50:56.408Z,7.60
2019-05-23T05:53:23.137Z,7.65
2019-05-23T05:55:49.869Z,7.74
2019-05-23T05:58:16.746Z,7.87
2019-05-23T06:00:43.480Z,8.01
2019-05-23T06:03:10.198Z,8.18
2019-05-23T06:05:37.183Z,8.33
2019-05-23T06:08:04.831Z,8.46
2019-05-23T06:10:31.680Z,8.59
2019-05-23T06:13:04.828Z,8.73
2019-05-23T06:15:31.672Z,8.87
2019-05-23T06:17:58.385Z,9.02
2019-05-23T06:20:27.894Z,9.18
2019-05-23T06:22:54.635Z,9.31
2019-05-23T06:25:22.043Z,9.47
2019-05-23T06:27:48.892Z,9.60
2019-05-23T06:30:18.089Z,9.76
2019-05-23T06:32:45.011Z,9.89
2019-05-23T06:35:12.497Z,10.06
2019-05-23T06:37:39.573Z,10.19
2019-05-23T06:40:07.075Z,10.30
2019-05-23T06:42:33.883Z,10.41
2019-05-23T06:45:00.609Z,10.52
2019-05-23T06:47:27.358Z,10.65
2019-05-23T06:49:54.226Z,10.72
2019-05-23T06:52:21.061Z,10.87
2019-05-23T06:54:47.795Z,10.96
2019-05-23T06:57:14.747Z,11.04
2019-05-23T06:59:41.600Z,11.08
2019-05-23T07:02:08.341Z,11.16
2019-05-23T07:04:35.335Z,11.26
2019-05-23T07:07:02.166Z,11.29
2019-05-23T07:09:29.212Z,11.41
2019-05-23T07:11:58.819Z,11.48
2019-05-23T07:14:26.065Z,11.61
2019-05-23T07:16:52.804Z,11.72
2019-05-23T07:19:20.394Z,11.83
2019-05-23T07:21:47.432Z,11.89
2019-05-23T07:24:14.180Z,12.01
2019-05-23T07:26:41.114Z,12.05
2019-05-23T07:29:10.358Z,12.14
2019-05-23T07:31:37.395Z,12.23
2019-05-23T07:34:04.426Z,12.24
2019-05-23T07:36:31.183Z,12.27
2019-05-23T07:38:57.932Z,12.33
2019-05-23T07:41:24.933Z,12.38
2019-05-23T07:43:51.984Z,12.40
2019-05-23T07:46:18.872Z,12.55
2019-05-23T07:48:45.829Z,12.68
2019-05-23T07:51:12.854Z,12.74
2019-05-23T07:53:39.898Z,12.79
2019-05-23T07:56:06.694Z,12.81
2019-05-23T07:58:33.440Z,12.93
2019-05-23T08:01:00.177Z,13.02
2019-05-23T08:03:30.981Z,13.05
2019-05-23T08:05:57.798Z,13.13
2019-05-23T08:08:24.670Z,13.18
2019-05-23T08:10:51.672Z,13.25
2019-05-23T08:13:18.534Z,13.36
2019-05-23T08:15:45.655Z,13.43
2019-05-23T08:18:12.744Z,13.45
2019-05-23T08:20:39.647Z,13.54
2019-05-23T08:23:06.393Z,13.51
2019-05-23T08:25:33.555Z,13.59
2019-05-23T08:28:00.316Z,13.62
2019-05-23T08:30:27.059Z,13.61
2019-05-23T08:32:54.254Z,13.76
2019-05-23T08:35:21.403Z,13.81
2019-05-23T08:37:48.136Z,13.80
2019-05-23T08:40:15.234Z,13.83
2019-05-23T08:42:43.061Z,13.96
2019-05-23T08:45:10.079Z,14.03
2019-05-23T08:47:37.051Z,14.12
2019-05-23T08:50:08.251Z,14.18
2019-05-23T08:52:34.955Z,14.27
2019-05-23T08:55:21.710Z,14.35
2019-05-23T08:57:48.830Z,14.38
2019-05-23T09:00:16.217Z,14.42
2019-05-23T09:02:44.483Z,14.59
2019-05-23T09:05:11.394Z,14.62
2019-05-23T09:07:38.119Z,14.65
2019-05-23T09:10:05.108Z,14.66
2019-05-23T09:12:32.922Z,14.71
2019-05-23T09:14:59.659Z,14.77
2019-05-23T09:17:26.736Z,14.86
2019-05-23T09:19:53.480Z,14.89
2019-05-23T09:22:20.202Z,14.84
2019-05-23T09:24:47.222Z,14.94
2019-05-23T09:27:13.953Z,14.99
2019-05-23T09:29:40.818Z,15.07
2019-05-23T09:32:07.915Z,15.00
2019-05-23T09:34:34.625Z,15.09
2019-05-23T09:37:01.448Z,15.19
2019-05-23T09:39:28.429Z,15.18
2019-05-23T09:41:55.342Z,15.18
2019-05-23T09:44:22.091Z,15.22
2019-05-23T09:46:48.946Z,15.26
2019-05-23T09:49:15.837Z,15.31
2019-05-23T09:51:42.576Z,15.41
2019-05-23T09:54:10.491Z,15.48
2019-05-23T09:56:37.242Z,15.61
2019-05-23T09:59:04.058Z,15.65
2019-05-23T10:01:31.363Z,15.76
2019-05-23T10:03:58.081Z,15.86
2019-05-23T10:06:24.896Z,15.92
2019-05-23T10:08:51.693Z,15.98
2019-05-23T10:11:18.422Z,16.00
2019-05-23T10:13:45.313Z,16.00
2019-05-23T10:16:12.245Z,16.05
2019-05-23T10:18:38.946Z,16.22
2019-05-23T10:21:05.772Z,16.21
2019-05-23T10:23:32.879Z,16.27
2019-05-23T10:25:59.603Z,16.26
2019-05-23T10:28:40.808Z,16.37
2019-05-23T10:31:07.525Z,16.50
2019-05-23T10:33:34.270Z,16.64
2019-05-23T10:36:01.446Z,16.73
2019-05-23T10:38:48.245Z,16.83
2019-05-23T10:41:15.257Z,16.92
2019-05-23T10:43:42.064Z,17.07
2019-05-23T10:46:08.986Z,17.17
2019-05-23T10:48:36.127Z,17.29
2019-05-23T10:51:02.809Z,17.42
2019-05-23T10:53:29.530Z,17.47
2019-05-23T10:55:56.447Z,17.58
2019-05-23T10:58:23.227Z,17.59
2019-05-23T11:00:49.939Z,17.70
2019-05-23T11:03:17.189Z,17.70
2019-05-23T11:05:44.186Z,17.80
2019-05-23T11:08:11.237Z,17.93
2019-05-23T11:10:38.928Z,17.98
2019-05-23T11:13:06.038Z,18.19
2019-05-23T11:15:33.144Z,18.42
2019-05-23T11:18:00.435Z,18.57
2019-05-23T11:20:27.258Z,18.73
2019-05-23T11:22:53.988Z,18.91
2019-05-23T11:25:21.359Z,19.09
2019-05-23T11:27:48.201Z,19.08
2019-05-23T11:30:15.765Z,18.95
2019-05-23T11:32:42.672Z,18.86
2019-05-23T11:35:10.107Z,18.84
2019-05-23T11:37:36.809Z,18.75
2019-05-23T11:40:06.218Z,18.74
2019-05-23T11:42:32.937Z,18.75
2019-05-23T11:44:59.799Z,18.82
2019-05-23T11:47:31.003Z,18.88
2019-05-23T11:49:56.186Z,18.88
2019-05-23T11:52:24.889Z,19.00
2019-05-23T11:54:52.512Z,19.06
2019-05-23T11:57:19.903Z,18.97
2019-05-23T11:59:46.771Z,18.87
2019-05-23T12:02:17.725Z,18.74
2019-05-23T12:04:44.496Z,18.69
2019-05-23T12:07:11.347Z,18.61
2019-05-23T12:09:38.336Z,18.61
2019-05-23T12:12:05.185Z,18.61
2019-05-23T12:14:32.085Z,18.60
2019-05-23T12:16:58.976Z,18.67
2019-05-23T12:19:25.771Z,18.79
2019-05-23T12:21:52.624Z,18.90
2019-05-23T12:24:20.062Z,19.16
2019-05-23T12:26:46.772Z,19.43
2019-05-23T12:29:13.590Z,19.57
2019-05-23T12:31:40.667Z,19.57
2019-05-23T12:34:07.451Z,19.51
2019-05-23T12:36:34.178Z,19.44
2019-05-23T12:39:01.121Z,19.34
2019-05-23T12:41:27.879Z,19.30
2019-05-23T12:43:54.819Z,19.24
2019-05-23T12:46:21.667Z,19.24
2019-05-23T12:48:51.277Z,19.27
2019-05-23T12:51:18.188Z,19.32
2019-05-23T12:53:46.139Z,19.41
2019-05-23T12:56:12.971Z,19.63
2019-05-23T12:58:39.672Z,19.79
2019-05-23T13:01:06.467Z,19.83
2019-05-23T13:03:34.643Z,19.81
2019-05-23T13:06:01.372Z,19.65
2019-05-23T13:08:28.439Z,19.58
2019-05-23T13:10:55.782Z,19.51
2019-05-23T13:13:23.013Z,19.40
2019-05-23T13:15:49.898Z,19.36
2019-05-23T13:18:16.907Z,19.33
2019-05-23T13:20:43.856Z,19.30
2019-05-23T13:23:19.545Z,19.32
2019-05-23T13:25:39.459Z,19.38
2019-05-23T13:28:06.680Z,19.55
2019-05-23T13:30:33.815Z,19.92
2019-05-23T13:33:03.600Z,20.39
2019-05-23T13:35:29.436Z,20.87
2019-05-23T13:37:56.221Z,21.31
2019-05-23T13:40:22.948Z,21.63
2019-05-23T13:42:49.668Z,21.84
2019-05-23T13:45:17.436Z,22.12
2019-05-23T13:47:44.278Z,22.20
2019-05-23T13:50:11.301Z,22.13
2019-05-23T13:52:38.189Z,22.00
2019-05-23T13:55:05.702Z,21.84
2019-05-23T13:57:32.417Z,21.69
2019-05-23T13:59:59.297Z,21.57
2019-05-23T14:02:26.002Z,21.66
2019-05-23T14:04:52.826Z,21.79
2019-05-23T14:07:19.811Z,22.00
2019-05-23T14:09:46.630Z,22.27
2019-05-23T14:12:21.826Z,22.10
2019-05-23T14:14:42.038Z,21.77
2019-05-23T14:17:09.052Z,21.58
2019-05-23T14:19:35.767Z,21.40
2019-05-23T14:22:02.941Z,21.24
2019-05-23T14:24:29.663Z,21.10
2019-05-23T14:26:56.364Z,20.98
2019-05-23T14:29:23.357Z,20.90
2019-05-23T14:31:50.069Z,20.80
2019-05-23T14:34:16.865Z,20.77
2019-05-23T14:36:43.747Z,20.77
2019-05-23T14:39:10.979Z,20.78
2019-05-23T14:41:45.059Z,20.73
2019-05-23T14:44:06.674Z,20.64
2019-05-23T14:46:33.418Z,20.67
2019-05-23T14:49:00.444Z,20.60
2019-05-23T14:51:35.214Z,20.53
2019-05-23T14:54:11.469Z,20.47
2019-05-23T14:56:38.354Z,20.41
2019-05-23T14:59:05.073Z,20.35
2019-05-23T15:01:31.815Z,20.37
2019-05-23T15:03:58.902Z,20.36
2019-05-23T15:06:25.639Z,20.37
2019-05-23T15:08:52.573Z,20.37
2019-05-23T15:11:19.491Z,20.32
2019-05-23T15:13:46.205Z,20.29
2019-05-23T15:16:13.023Z,20.27
2019-05-23T15:18:40.157Z,20.41
2019-05-23T15:21:06.979Z,20.68
2019-05-23T15:23:34.105Z,21.21
2019-05-23T15:26:01.000Z,21.73
2019-05-23T15:28:27.732Z,22.29
2019-05-23T15:30:54.451Z,22.81
2019-05-23T15:33:21.315Z,23.29
2019-05-23T15:35:48.192Z,23.69
2019-05-23T15:38:15.013Z,23.98
2019-05-23T15:40:42.292Z,24.20
2019-05-23T15:43:10.035Z,24.38
2019-05-23T15:45:37.419Z,24.54
2019-05-23T15:48:04.783Z,24.65
2019-05-23T15:50:31.509Z,24.50
2019-05-23T15:52:58.371Z,24.16
2019-05-23T15:55:25.738Z,23.66
2019-05-23T15:57:52.470Z,23.24
2019-05-23T16:00:19.825Z,22.73
2019-05-23T16:02:46.789Z,22.38
2019-05-23T16:05:13.529Z,22.14
2019-05-23T16:07:40.670Z,21.90
2019-05-23T16:10:07.869Z,21.60
2019-05-23T16:12:34.679Z,21.46
2019-05-23T16:15:01.490Z,21.28
2019-05-23T16:17:28.351Z,21.17
2019-05-23T16:19:55.074Z,21.26
2019-05-23T16:22:21.837Z,21.42
2019-05-23T16:24:48.818Z,21.57
2019-05-23T16:27:17.314Z,21.63
2019-05-23T16:29:44.052Z,21.64
2019-05-23T16:32:10.931Z,21.55
2019-05-23T16:34:37.663Z,21.49
2019-05-23T16:37:04.617Z,21.39
2019-05-23T16:39:45.782Z,21.22
2019-05-23T16:42:00.207Z,21.11
2019-05-23T16:44:31.614Z,21.01
2019-05-23T16:46:58.678Z,20.92
2019-05-23T16:49:25.513Z,20.81
2019-05-23T16:51:52.218Z,20.60
2019-05-23T16:54:19.232Z,20.38
2019-05-23T16:56:45.959Z,20.30
2019-05-23T16:59:12.817Z,20.23
2019-05-23T17:01:54.870Z,20.18
2019-05-23T17:04:11.035Z,20.11
2019-05-23T17:06:38.094Z,20.04
2019-05-23T17:09:06.463Z,19.96
2019-05-23T17:11:33.240Z,19.88
2019-05-23T17:13:59.956Z,19.80
2019-05-23T17:16:26.749Z,19.76
2019-05-23T17:18:53.562Z,19.70
2019-05-23T17:21:21.082Z,19.68
2019-05-23T17:23:47.826Z,19.60
2019-05-23T17:26:14.637Z,19.54
2019-05-23T17:28:41.580Z,19.50
2019-05-23T17:31:08.411Z,19.47
2019-05-23T17:33:37.085Z,19.39
2019-05-23T17:36:04.038Z,19.31
2019-05-23T17:38:30.853Z,19.22
2019-05-23T17:40:57.539Z,19.15
2019-05-23T17:43:24.949Z,19.06
2019-05-23T17:45:51.822Z,18.97
2019-05-23T17:48:18.615Z,18.89
2019-05-23T17:50:45.547Z,18.83
2019-05-23T17:53:12.361Z,18.78
2019-05-23T17:55:39.075Z,18.72
2019-05-23T17:58:06.255Z,18.63
2019-05-23T18:00:33.171Z,18.55
2019-05-23T18:02:59.946Z,18.50
2019-05-23T18:05:26.991Z,18.44
2019-05-23T18:07:56.987Z,18.35
2019-05-23T18:10:23.682Z,18.28
2019-05-23T18:12:50.553Z,18.19
2019-05-23T18:15:17.494Z,18.09
2019-05-23T18:17:44.219Z,17.97
2019-05-23T18:20:12.527Z,17.86
2019-05-23T18:22:39.206Z,17.73
2019-05-23T18:25:06.554Z,17.61
2019-05-23T18:27:33.429Z,17.45
2019-05-23T18:30:00.688Z,17.38
2019-05-23T18:32:27.510Z,17.29
2019-05-23T18:34:54.675Z,17.18
2019-05-23T18:37:22.021Z,17.05
2019-05-23T18:39:48.801Z,16.93
2019-05-23T18:42:15.685Z,16.83
2019-05-23T18:44:42.392Z,16.73
2019-05-23T18:47:09.133Z,16.65
2019-05-23T18:49:36.099Z,16.55
2019-05-23T18:52:03.237Z,16.41
2019-05-23T18:54:29.963Z,16.35
2019-05-23T18:56:56.811Z,16.32
2019-05-23T18:59:23.550Z,16.28
2019-05-23T19:01:50.279Z,16.15
2019-05-23T19:04:17.146Z,15.97
2019-05-23T19:06:44.186Z,15.86
2019-05-23T19:09:11.032Z,15.79
2019-05-23T19:11:38.816Z,15.70
2019-05-23T19:14:05.539Z,15.56
2019-05-23T19:16:32.278Z,15.50
2019-05-23T19:18:59.281Z,15.45
2019-05-23T19:21:26.098Z,15.40
2019-05-23T19:23:52.821Z,15.30
2019-05-23T19:26:20.399Z,15.26
2019-05-23T19:28:47.128Z,15.19
2019-05-23T19:31:14.158Z,15.10
2019-05-23T19:33:41.162Z,14.98
2019-05-23T19:36:07.943Z,14.86
2019-05-23T19:38:34.716Z,14.77
2019-05-23T19:41:02.893Z,14.64
2019-05-23T19:43:29.718Z,14.55
2019-05-23T19:45:56.631Z,14.44
2019-05-23T19:48:23.524Z,14.40
2019-05-23T19:50:50.251Z,14.32
2019-05-23T19:53:17.072Z,14.22
2019-05-23T19:55:44.332Z,14.16
2019-05-23T19:58:11.068Z,14.06
2019-05-23T20:00:37.763Z,14.03
2019-05-23T20:03:24.371Z,13.98
2019-05-23T20:05:52.090Z,13.94
2019-05-23T20:08:18.818Z,13.87
2019-05-23T20:10:46.150Z,13.81
2019-05-23T20:13:12.945Z,13.81
2019-05-23T20:15:39.766Z,13.75
2019-05-23T20:18:06.794Z,13.68
2019-05-23T20:20:34.887Z,13.65
2019-05-23T20:23:01.620Z,13.57
2019-05-23T20:25:28.634Z,13.47
2019-05-23T20:27:55.517Z,13.40
2019-05-23T20:30:46.465Z,13.31
2019-05-23T20:33:13.568Z,13.23
2019-05-23T20:35:40.412Z,13.08
2019-05-23T20:38:07.785Z,13.02
2019-05-23T20:40:34.718Z,12.99
2019-05-23T20:43:02.670Z,12.95
2019-05-23T20:45:29.787Z,12.82
2019-05-23T20:47:56.569Z,12.69
2019-05-23T20:50:23.422Z,12.61
2019-05-23T20:52:50.279Z,12.50
2019-05-23T20:55:17.007Z,12.44
2019-05-23T20:57:43.711Z,12.42
2019-05-23T21:00:11.100Z,12.35
2019-05-23T21:02:37.809Z,12.29
2019-05-23T21:05:05.739Z,12.22
2019-05-23T21:07:32.625Z,12.10
2019-05-23T21:09:59.472Z,12.11
2019-05-23T21:12:30.204Z,12.07
2019-05-23T21:14:54.868Z,12.03
2019-05-23T21:17:21.602Z,12.01
2019-05-23T21:19:48.301Z,11.94
2019-05-23T21:22:15.385Z,11.99
2019-05-23T21:24:42.087Z,11.94
2019-05-23T21:27:08.812Z,11.84
2019-05-23T21:29:35.688Z,11.81
2019-05-23T21:32:02.563Z,11.74
2019-05-23T21:34:29.201Z,11.66
2019-05-23T21:36:56.087Z,11.60
2019-05-23T21:39:22.783Z,11.53
2019-05-23T21:41:49.546Z,11.47
2019-05-23T21:44:16.526Z,11.43
2019-05-23T21:46:43.262Z,11.38
2019-05-23T21:49:09.949Z,11.36
2019-05-23T21:51:36.911Z,11.32
2019-05-23T21:54:03.640Z,11.30
2019-05-23T21:56:30.375Z,11.30
2019-05-23T21:58:57.231Z,11.29
2019-05-23T22:01:24.330Z,11.22
2019-05-23T22:03:51.874Z,11.20
2019-05-23T22:06:20.064Z,11.16
2019-05-23T22:08:46.780Z,11.11
2019-05-23T22:11:13.607Z,11.09
2019-05-23T22:13:40.442Z,11.02
2019-05-23T22:16:07.564Z,11.01
2019-05-23T22:18:34.708Z,10.99
2019-05-23T22:21:01.580Z,10.92
2019-05-23T22:23:28.308Z,10.85
2019-05-23T22:25:55.125Z,10.80
2019-05-23T22:28:22.014Z,10.80
2019-05-23T22:30:48.721Z,10.74
2019-05-23T22:33:15.751Z,10.70
2019-05-23T22:35:42.643Z,10.63
2019-05-23T22:38:09.477Z,10.57
2019-05-23T22:40:38.575Z,10.51
2019-05-23T22:43:18.656Z,10.47
2019-05-23T22:45:33.909Z,10.42
2019-05-23T22:48:00.618Z,10.38
2019-05-23T22:50:30.644Z,10.36
2019-05-23T22:52:57.353Z,10.34
2019-05-23T22:55:24.080Z,10.27
2019-05-23T22:57:50.863Z,10.22
2019-05-23T23:00:17.700Z,10.20
2019-05-23T23:02:46.067Z,10.15
2019-05-23T23:05:13.526Z,10.10
2019-05-23T23:07:40.256Z,10.08
2019-05-23T23:10:07.504Z,10.04
2019-05-23T23:12:34.496Z,10.02
2019-05-23T23:15:01.226Z,10.00
2019-05-23T23:17:29.247Z,9.97
2019-05-23T23:19:56.117Z,10.00
2019-05-23T23:22:22.876Z,9.96
2019-05-23T23:24:49.726Z,9.97
2019-05-23T23:27:16.598Z,9.95
2019-05-23T23:29:43.429Z,9.91
2019-05-23T23:32:10.167Z,9.83
2019-05-23T23:34:37.048Z,9.78
2019-05-23T23:37:03.786Z,9.75
2019-05-23T23:39:30.480Z,9.70
2019-05-23T23:41:57.335Z,9.68
2019-05-23T23:44:24.114Z,9.62
2019-05-23T23:46:50.939Z,9.58
2019-05-23T23:49:17.832Z,9.58
2019-05-23T23:51:44.534Z,9.57
2019-05-23T23:54:11.296Z,9.51
2019-05-23T23:56:38.159Z,9.46
2019-05-23T23:59:04.897Z,9.41
